sensor_id;sensor_type;location;lat;lon;timestamp;temperature;humidity
8886;DHT22;4479;51.162;13.906;2023-03-30T00:13:06;9.90;99.90
8886;DHT22;4479;51.162;13.906;2023-03-30T00:33:11;10.00;99.90
8886;DHT22;4479;51.162;13.906;2023-03-30T00:53:20;10.00;99.90
8886;DHT22;4479;51.162;13.906;2023-03-30T01:03:29;10.00;99.90
8886;DHT22;4479;51.162;13.906;2023-03-30T01:13:36;10.10;99.90
8886;DHT22;4479;51.162;13.906;2023-03-30T01:24:00;10.00;99.90
8886;DHT22;4479;51.162;13.906;2023-03-30T01:34:54;10.00;99.90
8886;DHT22;4479;51.162;13.906;2023-03-30T01:45:12;10.00;99.90
8886;DHT22;4479;51.162;13.906;2023-03-30T01:55:18;9.90;99.90
8886;DHT22;4479;51.162;13.906;2023-03-30T02:05:26;10.00;99.90
8886;DHT22;4479;51.162;13.906;2023-03-30T02:15:32;10.00;99.90
8886;DHT22;4479;51.162;13.906;2023-03-30T02:25:38;10.00;99.90
8886;DHT22;4479;51.162;13.906;2023-03-30T02:35:53;10.00;99.90
8886;DHT22;4479;51.162;13.906;2023-03-30T02:46:13;9.90;99.90
8886;DHT22;4479;51.162;13.906;2023-03-30T02:56:23;9.80;99.90
8886;DHT22;4479;51.162;13.906;2023-03-30T03:06:32;9.70;99.90
8886;DHT22;4479;51.162;13.906;2023-03-30T03:26:46;9.70;99.90
8886;DHT22;4479;51.162;13.906;2023-03-30T03:46:54;9.70;99.90
8886;DHT22;4479;51.162;13.906;2023-03-30T04:07:02;9.60;99.90
8886;DHT22;4479;51.162;13.906;2023-03-30T04:27:32;9.50;99.90
8886;DHT22;4479;51.162;13.906;2023-03-30T04:48:46;9.40;99.90
8886;DHT22;4479;51.162;13.906;2023-03-30T04:59:12;9.40;99.90
8886;DHT22;4479;51.162;13.906;2023-03-30T05:09:41;9.40;99.90
8886;DHT22;4479;51.162;13.906;2023-03-30T05:30:35;9.50;99.90
8886;DHT22;4479;51.162;13.906;2023-03-30T05:51:24;9.80;99.90
8886;DHT22;4479;51.162;13.906;2023-03-30T06:11:45;10.30;99.90
8886;DHT22;4479;51.162;13.906;2023-03-30T06:32:05;10.90;99.90
8886;DHT22;4479;51.162;13.906;2023-03-30T15:49:28;18.30;99.90
8886;DHT22;4479;51.162;13.906;2023-03-30T19:11:12;12.80;99.90
8886;DHT22;4479;51.162;13.906;2023-03-30T19:31:21;12.80;99.90
8886;DHT22;4479;51.162;13.906;2023-03-30T19:51:27;12.90;99.90
8886;DHT22;4479;51.162;13.906;2023-03-30T20:11:33;12.90;99.90
8886;DHT22;4479;51.162;13.906;2023-03-30T20:31:38;12.70;99.90
8886;DHT22;4479;51.162;13.906;2023-03-30T20:51:47;12.50;99.90
8886;DHT22;4479;51.162;13.906;2023-03-30T21:11:53;12.50;99.90
8886;DHT22;4479;51.162;13.906;2023-03-30T21:32:00;12.40;99.90
8886;DHT22;4479;51.162;13.906;2023-03-30T21:52:06;12.20;99.90
8886;DHT22;4479;51.162;13.906;2023-03-30T22:12:12;12.20;99.90
8886;DHT22;4479;51.162;13.906;2023-03-30T22:32:18;12.10;99.90
8886;DHT22;4479;51.162;13.906;2023-03-30T22:52:24;12.30;99.90
8886;DHT22;4479;51.162;13.906;2023-03-30T23:12:31;12.60;99.90
8886;DHT22;4479;51.162;13.906;2023-03-30T23:32:37;12.70;99.90
8886;DHT22;4479;51.162;13.906;2023-03-30T23:52:42;12.70;99.90
